sensor_id;sensor_type;location;lat;lon;timestamp;pressure;altitude;pressure_sealevel;temperature;humidity
77793;BME280;66983;51.438;5.438;2023-03-14T00:01:57;98907.16;;;12.17;69.16
77793;BME280;66983;51.438;5.438;2023-03-14T00:04:22;98909.22;;;12.13;69.20
77793;BME280;66983;51.438;5.438;2023-03-14T00:06:48;98901.31;;;12.12;69.06
77793;BME280;66983;51.438;5.438;2023-03-14T00:09:15;98897.06;;;12.09;70.18
77793;BME280;66983;51.438;5.438;2023-03-14T00:11:41;98883.31;;;12.03;69.37
77793;BME280;66983;51.438;5.438;2023-03-14T00:14:07;98886.84;;;12.03;69.86
77793;BME280;66983;51.438;5.438;2023-03-14T00:16:32;98899.56;;;12.00;69.09
77793;BME280;66983;51.438;5.438;2023-03-14T00:18:59;98906.84;;;11.98;69.79
77793;BME280;66983;51.438;5.438;2023-03-14T00:21:25;98899.09;;;11.95;69.28
77793;BME280;66983;51.438;5.438;2023-03-14T00:23:51;98917.03;;;11.93;69.44
77793;BME280;66983;51.438;5.438;2023-03-14T00:26:19;98915.56;;;11.88;68.76
77793;BME280;66983;51.438;5.438;2023-03-14T00:28:46;98915.78;;;11.85;67.97
77793;BME280;66983;51.438;5.438;2023-03-14T00:31:14;98910.91;;;11.79;67.07
77793;BME280;66983;51.438;5.438;2023-03-14T00:33:41;98921.13;;;11.73;67.73
77793;BME280;66983;51.438;5.438;2023-03-14T00:36:09;98924.28;;;11.67;67.64
77793;BME280;66983;51.438;5.438;2023-03-14T00:38:54;98927.28;;;11.62;67.43
77793;BME280;66983;51.438;5.438;2023-03-14T00:41:22;98938.19;;;11.59;66.56
77793;BME280;66983;51.438;5.438;2023-03-14T00:43:49;98938.41;;;11.56;67.08
77793;BME280;66983;51.438;5.438;2023-03-14T00:46:15;98932.97;;;11.57;66.21
77793;BME280;66983;51.438;5.438;2023-03-14T00:48:44;98930.41;;;11.56;65.97
77793;BME280;66983;51.438;5.438;2023-03-14T00:51:10;98934.03;;;11.55;66.15
77793;BME280;66983;51.438;5.438;2023-03-14T00:53:42;98930.50;;;11.54;66.52
77793;BME280;66983;51.438;5.438;2023-03-14T00:56:10;98929.88;;;11.51;67.24
77793;BME280;66983;51.438;5.438;2023-03-14T00:58:37;98925.41;;;11.51;67.15
77793;BME280;66983;51.438;5.438;2023-03-14T01:01:13;98928.19;;;11.50;66.67
77793;BME280;66983;51.438;5.438;2023-03-14T01:03:40;98929.38;;;11.46;67.75
77793;BME280;66983;51.438;5.438;2023-03-14T01:08:34;98940.03;;;11.46;66.96
77793;BME280;66983;51.438;5.438;2023-03-14T01:11:05;98945.38;;;11.46;66.20
77793;BME280;66983;51.438;5.438;2023-03-14T01:13:30;98938.31;;;11.45;66.44
77793;BME280;66983;51.438;5.438;2023-03-14T01:16:01;98941.84;;;11.45;66.46
77793;BME280;66983;51.438;5.438;2023-03-14T01:18:27;98935.66;;;11.45;66.49
77793;BME280;66983;51.438;5.438;2023-03-14T01:20:52;98921.63;;;11.43;67.10
77793;BME280;66983;51.438;5.438;2023-03-14T01:23:18;98922.56;;;11.42;66.47
77793;BME280;66983;51.438;5.438;2023-03-14T01:25:43;98921.84;;;11.40;66.56
77793;BME280;66983;51.438;5.438;2023-03-14T01:28:09;98925.47;;;11.39;67.09
77793;BME280;66983;51.438;5.438;2023-03-14T01:30:35;98907.75;;;11.38;66.37
77793;BME280;66983;51.438;5.438;2023-03-14T01:33:00;98902.41;;;11.38;66.96
77793;BME280;66983;51.438;5.438;2023-03-14T01:35:26;98897.09;;;11.38;66.93
77793;BME280;66983;51.438;5.438;2023-03-14T01:37:54;98892.72;;;11.37;67.85
77793;BME280;66983;51.438;5.438;2023-03-14T01:40:22;98899.22;;;11.33;67.04
77793;BME280;66983;51.438;5.438;2023-03-14T01:42:57;98890.28;;;11.34;67.84
77793;BME280;66983;51.438;5.438;2023-03-14T01:46:28;98881.41;;;11.33;67.78
77793;BME280;66983;51.438;5.438;2023-03-14T01:54:08;98867.56;;;11.28;68.00
77793;BME280;66983;51.438;5.438;2023-03-14T01:56:36;98871.31;;;11.26;67.92
77793;BME280;66983;51.438;5.438;2023-03-14T01:59:07;98877.50;;;11.26;69.12
77793;BME280;66983;51.438;5.438;2023-03-14T02:01:35;98877.50;;;11.26;68.35
77793;BME280;66983;51.438;5.438;2023-03-14T02:04:05;98868.53;;;11.27;68.79
77793;BME280;66983;51.438;5.438;2023-03-14T02:06:46;98870.22;;;11.28;68.72
77793;BME280;66983;51.438;5.438;2023-03-14T02:09:15;98878.13;;;11.30;70.25
77793;BME280;66983;51.438;5.438;2023-03-14T02:11:42;98870.34;;;11.27;69.63
77793;BME280;66983;51.438;5.438;2023-03-14T02:14:34;98861.50;;;11.26;69.90
77793;BME280;66983;51.438;5.438;2023-03-14T02:17:20;98859.66;;;11.27;69.16
77793;BME280;66983;51.438;5.438;2023-03-14T02:20:36;98855.19;;;11.27;69.90
77793;BME280;66983;51.438;5.438;2023-03-14T02:23:04;98868.41;;;11.29;69.12
77793;BME280;66983;51.438;5.438;2023-03-14T02:25:47;98870.22;;;11.28;69.63
77793;BME280;66983;51.438;5.438;2023-03-14T02:28:14;98858.81;;;11.26;69.78
77793;BME280;66983;51.438;5.438;2023-03-14T02:30:40;98861.59;;;11.25;70.09
77793;BME280;66983;51.438;5.438;2023-03-14T02:33:18;98861.59;;;11.25;70.42
77793;BME280;66983;51.438;5.438;2023-03-14T02:35:59;98853.81;;;11.21;70.88
77793;BME280;66983;51.438;5.438;2023-03-14T02:41:07;98856.00;;;11.16;71.24
77793;BME280;66983;51.438;5.438;2023-03-14T02:43:38;98845.34;;;11.16;71.27
77793;BME280;66983;51.438;5.438;2023-03-14T02:46:12;98833.81;;;11.16;71.69
77793;BME280;66983;51.438;5.438;2023-03-14T02:48:43;98834.88;;;11.13;71.93
77793;BME280;66983;51.438;5.438;2023-03-14T02:51:12;98837.03;;;11.08;72.06
77793;BME280;66983;51.438;5.438;2023-03-14T02:53:38;98838.97;;;11.06;72.19
77793;BME280;66983;51.438;5.438;2023-03-14T02:56:10;98844.41;;;11.05;72.46
77793;BME280;66983;51.438;5.438;2023-03-14T02:58:37;98840.88;;;11.04;72.19
77793;BME280;66983;51.438;5.438;2023-03-14T03:01:26;98841.84;;;11.03;72.42
77793;BME280;66983;51.438;5.438;2023-03-14T03:03:51;98836.50;;;11.03;72.65
77793;BME280;66983;51.438;5.438;2023-03-14T03:06:19;98840.13;;;11.02;72.62
77793;BME280;66983;51.438;5.438;2023-03-14T03:08:45;98841.00;;;11.03;71.97
77793;BME280;66983;51.438;5.438;2023-03-14T03:11:11;98851.53;;;11.04;72.32
77793;BME280;66983;51.438;5.438;2023-03-14T03:13:36;98855.19;;;11.03;72.60
77793;BME280;66983;51.438;5.438;2023-03-14T03:16:04;98850.81;;;11.02;72.45
77793;BME280;66983;51.438;5.438;2023-03-14T03:18:30;98853.34;;;11.04;72.02
77793;BME280;66983;51.438;5.438;2023-03-14T03:20:59;98844.72;;;11.00;71.69
77793;BME280;66983;51.438;5.438;2023-03-14T03:23:25;98845.59;;;11.01;72.35
77793;BME280;66983;51.438;5.438;2023-03-14T03:25:51;98839.41;;;11.00;72.35
77793;BME280;66983;51.438;5.438;2023-03-14T03:28:18;98837.69;;;10.99;72.08
77793;BME280;66983;51.438;5.438;2023-03-14T03:30:44;98833.66;;;10.94;72.21
77793;BME280;66983;51.438;5.438;2023-03-14T03:33:11;98843.25;;;10.96;72.15
77793;BME280;66983;51.438;5.438;2023-03-14T03:35:48;98830.13;;;10.93;72.47
77793;BME280;66983;51.438;5.438;2023-03-14T03:38:18;98833.66;;;10.94;72.22
77793;BME280;66983;51.438;5.438;2023-03-14T03:40:47;98834.50;;;10.94;71.81
77793;BME280;66983;51.438;5.438;2023-03-14T03:43:13;98839.09;;;10.92;71.28
77793;BME280;66983;51.438;5.438;2023-03-14T03:45:42;98830.38;;;10.90;71.83
77793;BME280;66983;51.438;5.438;2023-03-14T03:48:07;98826.88;;;10.90;71.87
77793;BME280;66983;51.438;5.438;2023-03-14T03:50:33;98819.84;;;10.88;71.86
77793;BME280;66983;51.438;5.438;2023-03-14T03:52:59;98823.56;;;10.86;71.64
77793;BME280;66983;51.438;5.438;2023-03-14T03:55:24;98828.38;;;10.81;72.05
77793;BME280;66983;51.438;5.438;2023-03-14T03:57:51;98816.44;;;10.74;71.63
77793;BME280;66983;51.438;5.438;2023-03-14T04:00:17;98835.44;;;10.69;72.80
77793;BME280;66983;51.438;5.438;2023-03-14T04:02:42;98826.94;;;10.64;72.20
77793;BME280;66983;51.438;5.438;2023-03-14T04:05:12;98822.91;;;10.59;72.89
77793;BME280;66983;51.438;5.438;2023-03-14T04:07:42;98827.47;;;10.57;72.64
77793;BME280;66983;51.438;5.438;2023-03-14T04:10:09;98833.75;;;10.56;73.63
77793;BME280;66983;51.438;5.438;2023-03-14T04:12:41;98819.59;;;10.55;73.82
77793;BME280;66983;51.438;5.438;2023-03-14T04:15:14;98819.69;;;10.53;73.73
77793;BME280;66983;51.438;5.438;2023-03-14T04:17:45;98826.94;;;10.51;73.61
77793;BME280;66983;51.438;5.438;2023-03-14T04:20:13;98820.13;;;10.47;75.16
77793;BME280;66983;51.438;5.438;2023-03-14T04:22:39;98832.50;;;10.48;75.96
77793;BME280;66983;51.438;5.438;2023-03-14T04:25:06;98826.41;;;10.46;75.96
77793;BME280;66983;51.438;5.438;2023-03-14T04:27:36;98810.66;;;10.43;76.60
77793;BME280;66983;51.438;5.438;2023-03-14T04:30:05;98822.50;;;10.39;76.86
77793;BME280;66983;51.438;5.438;2023-03-14T04:32:45;98820.28;;;10.33;77.89
77793;BME280;66983;51.438;5.438;2023-03-14T04:35:10;98817.81;;;10.30;78.15
77793;BME280;66983;51.438;5.438;2023-03-14T04:37:36;98812.06;;;10.24;79.52
77793;BME280;66983;51.438;5.438;2023-03-14T04:40:02;98813.03;;;10.23;78.66
77793;BME280;66983;51.438;5.438;2023-03-14T04:42:32;98815.78;;;10.21;79.28
77793;BME280;66983;51.438;5.438;2023-03-14T04:44:58;98804.19;;;10.22;79.47
77793;BME280;66983;51.438;5.438;2023-03-14T04:47:26;98801.72;;;10.19;80.60
77793;BME280;66983;51.438;5.438;2023-03-14T04:49:52;98810.97;;;10.13;81.03
77793;BME280;66983;51.438;5.438;2023-03-14T04:52:18;98820.03;;;10.11;81.39
77793;BME280;66983;51.438;5.438;2023-03-14T04:54:46;98809.59;;;10.08;82.49
77793;BME280;66983;51.438;5.438;2023-03-14T04:57:12;98814.19;;;10.06;81.92
77793;BME280;66983;51.438;5.438;2023-03-14T04:59:38;98808.97;;;10.04;82.50
77793;BME280;66983;51.438;5.438;2023-03-14T05:02:24;98812.47;;;10.05;82.38
77793;BME280;66983;51.438;5.438;2023-03-14T05:05:19;98811.63;;;10.04;82.96
77793;BME280;66983;51.438;5.438;2023-03-14T05:08:23;98809.06;;;10.03;82.36
77793;BME280;66983;51.438;5.438;2023-03-14T05:11:12;98809.06;;;10.03;82.54
77793;BME280;66983;51.438;5.438;2023-03-14T05:14:04;98809.91;;;10.03;82.24
77793;BME280;66983;51.438;5.438;2023-03-14T05:16:48;98810.78;;;10.04;83.60
77793;BME280;66983;51.438;5.438;2023-03-14T05:19:43;98800.13;;;10.04;83.51
77793;BME280;66983;51.438;5.438;2023-03-14T05:22:27;98806.19;;;10.06;82.84
77793;BME280;66983;51.438;5.438;2023-03-14T05:24:55;98796.09;;;10.11;83.28
77793;BME280;66983;51.438;5.438;2023-03-14T05:27:59;98800.22;;;10.15;82.60
77793;BME280;66983;51.438;5.438;2023-03-14T05:30:37;98800.00;;;10.18;82.84
77793;BME280;66983;51.438;5.438;2023-03-14T05:33:26;98793.81;;;10.17;83.48
77793;BME280;66983;51.438;5.438;2023-03-14T05:36:15;98792.88;;;10.18;82.53
77793;BME280;66983;51.438;5.438;2023-03-14T05:39:07;98792.88;;;10.18;83.08
77793;BME280;66983;51.438;5.438;2023-03-14T05:42:02;98780.63;;;10.16;83.43
77793;BME280;66983;51.438;5.438;2023-03-14T05:44:46;98784.34;;;10.13;84.72
77793;BME280;66983;51.438;5.438;2023-03-14T05:47:28;98786.19;;;10.13;84.96
77793;BME280;66983;51.438;5.438;2023-03-14T05:50:07;98780.97;;;10.11;84.32
77793;BME280;66983;51.438;5.438;2023-03-14T05:52:50;98792.31;;;10.13;84.19
77793;BME280;66983;51.438;5.438;2023-03-14T05:55:42;98784.47;;;10.12;84.90
77793;BME280;66983;51.438;5.438;2023-03-14T05:58:24;98782.03;;;10.09;85.39
77793;BME280;66983;51.438;5.438;2023-03-14T06:01:19;98772.97;;;10.11;85.33
77793;BME280;66983;51.438;5.438;2023-03-14T06:04:02;98776.50;;;10.12;85.32
77793;BME280;66983;51.438;5.438;2023-03-14T06:06:28;98778.31;;;10.11;85.04
77793;BME280;66983;51.438;5.438;2023-03-14T06:08:54;98770.31;;;10.11;85.30
77793;BME280;66983;51.438;5.438;2023-03-14T06:11:19;98777.34;;;10.12;86.08
77793;BME280;66983;51.438;5.438;2023-03-14T06:13:45;98771.38;;;10.09;85.64
77793;BME280;66983;51.438;5.438;2023-03-14T06:16:12;98773.94;;;10.10;85.76
77793;BME280;66983;51.438;5.438;2023-03-14T06:18:38;98780.13;;;10.11;85.90
77793;BME280;66983;51.438;5.438;2023-03-14T06:21:07;98776.50;;;10.12;85.79
77793;BME280;66983;51.438;5.438;2023-03-14T06:23:34;98774.69;;;10.12;85.05
77793;BME280;66983;51.438;5.438;2023-03-14T06:26:01;98775.41;;;10.14;85.00
77793;BME280;66983;51.438;5.438;2023-03-14T06:28:27;98773.47;;;10.16;84.80
77793;BME280;66983;51.438;5.438;2023-03-14T06:30:58;98777.84;;;10.17;85.03
77793;BME280;66983;51.438;5.438;2023-03-14T06:33:24;98781.19;;;10.21;84.68
77793;BME280;66983;51.438;5.438;2023-03-14T06:35:49;98780.00;;;10.25;83.68
77793;BME280;66983;51.438;5.438;2023-03-14T06:38:15;98782.56;;;10.27;83.76
77793;BME280;66983;51.438;5.438;2023-03-14T06:40:41;98778.94;;;10.28;83.68
77793;BME280;66983;51.438;5.438;2023-03-14T06:43:11;98787.56;;;10.31;84.17
77793;BME280;66983;51.438;5.438;2023-03-14T06:45:38;98781.28;;;10.32;83.72
77793;BME280;66983;51.438;5.438;2023-03-14T06:48:05;98790.03;;;10.34;83.89
77793;BME280;66983;51.438;5.438;2023-03-14T06:50:38;98784.47;;;10.37;84.22
77793;BME280;66983;51.438;5.438;2023-03-14T06:53:03;98798.41;;;10.41;84.04
77793;BME280;66983;51.438;5.438;2023-03-14T06:55:31;98787.22;;;10.48;83.82
77793;BME280;66983;51.438;5.438;2023-03-14T06:57:56;98786.16;;;10.51;83.81
77793;BME280;66983;51.438;5.438;2023-03-14T07:00:22;98793.69;;;10.57;84.22
77793;BME280;66983;51.438;5.438;2023-03-14T07:02:52;98796.03;;;10.62;83.91
77793;BME280;66983;51.438;5.438;2023-03-14T07:05:26;98797.97;;;10.60;83.84
77793;BME280;66983;51.438;5.438;2023-03-14T07:07:52;98801.38;;;10.62;84.06
77793;BME280;66983;51.438;5.438;2023-03-14T07:10:18;98804.13;;;10.60;83.83
77793;BME280;66983;51.438;5.438;2023-03-14T07:12:43;98805.00;;;10.61;84.01
77793;BME280;66983;51.438;5.438;2023-03-14T07:15:09;98818.09;;;10.64;84.23
77793;BME280;66983;51.438;5.438;2023-03-14T07:17:35;98818.09;;;10.64;84.96
77793;BME280;66983;51.438;5.438;2023-03-14T07:20:01;98820.00;;;10.62;84.16
77793;BME280;66983;51.438;5.438;2023-03-14T07:22:27;98825.44;;;10.60;84.31
77793;BME280;66983;51.438;5.438;2023-03-14T07:24:52;98827.47;;;10.57;84.54
77793;BME280;66983;51.438;5.438;2023-03-14T07:27:21;98834.84;;;10.53;84.63
77793;BME280;66983;51.438;5.438;2023-03-14T07:29:48;98842.19;;;10.49;84.13
77793;BME280;66983;51.438;5.438;2023-03-14T07:32:13;98854.22;;;10.42;85.61
77793;BME280;66983;51.438;5.438;2023-03-14T07:34:43;98856.28;;;10.39;85.76
77793;BME280;66983;51.438;5.438;2023-03-14T07:37:10;98891.09;;;10.36;86.38
77793;BME280;66983;51.438;5.438;2023-03-14T07:39:36;98931.75;;;10.25;84.46
77793;BME280;66983;51.438;5.438;2023-03-14T07:42:08;98967.66;;;9.93;80.60
77793;BME280;66983;51.438;5.438;2023-03-14T07:44:52;98952.06;;;9.47;81.88
77793;BME280;66983;51.438;5.438;2023-03-14T07:47:17;98964.16;;;9.24;81.16
77793;BME280;66983;51.438;5.438;2023-03-14T07:49:43;98983.00;;;9.07;82.40
77793;BME280;66983;51.438;5.438;2023-03-14T07:52:08;98997.59;;;9.00;83.60
77793;BME280;66983;51.438;5.438;2023-03-14T07:54:34;98986.50;;;8.79;82.48
77793;BME280;66983;51.438;5.438;2023-03-14T07:57:00;99011.44;;;8.76;82.52
77793;BME280;66983;51.438;5.438;2023-03-14T07:59:27;99020.81;;;8.68;83.57
77793;BME280;66983;51.438;5.438;2023-03-14T08:01:53;99028.97;;;8.65;83.81
77793;BME280;66983;51.438;5.438;2023-03-14T08:04:18;99038.38;;;8.56;82.98
77793;BME280;66983;51.438;5.438;2023-03-14T08:06:44;99035.97;;;8.52;84.75
77793;BME280;66983;51.438;5.438;2023-03-14T08:09:09;99052.19;;;8.47;84.55
77793;BME280;66983;51.438;5.438;2023-03-14T08:11:36;99047.91;;;8.44;84.49
77793;BME280;66983;51.438;5.438;2023-03-14T08:14:01;99060.22;;;8.45;84.03
77793;BME280;66983;51.438;5.438;2023-03-14T08:16:27;99059.56;;;8.42;84.75
77793;BME280;66983;51.438;5.438;2023-03-14T08:18:52;99080.78;;;8.42;85.14
77793;BME280;66983;51.438;5.438;2023-03-14T08:21:18;99089.00;;;8.37;84.64
77793;BME280;66983;51.438;5.438;2023-03-14T08:23:43;99090.72;;;8.38;85.83
77793;BME280;66983;51.438;5.438;2023-03-14T08:26:09;99117.28;;;8.38;84.22
77793;BME280;66983;51.438;5.438;2023-03-14T08:28:35;99128.16;;;8.34;83.58
77793;BME280;66983;51.438;5.438;2023-03-14T08:31:00;99132.59;;;8.33;84.43
77793;BME280;66983;51.438;5.438;2023-03-14T08:33:28;99142.19;;;8.36;85.56
77793;BME280;66983;51.438;5.438;2023-03-14T08:35:55;99136.63;;;8.40;84.74
77793;BME280;66983;51.438;5.438;2023-03-14T08:38:21;99163.84;;;8.44;83.68
77793;BME280;66983;51.438;5.438;2023-03-14T08:40:55;99168.66;;;8.37;84.92
77793;BME280;66983;51.438;5.438;2023-03-14T08:43:20;99182.59;;;8.41;82.59
77793;BME280;66983;51.438;5.438;2023-03-14T08:45:46;99185.72;;;8.32;82.01
77793;BME280;66983;51.438;5.438;2023-03-14T08:48:11;99198.28;;;8.30;84.16
77793;BME280;66983;51.438;5.438;2023-03-14T08:50:37;99215.91;;;8.31;84.36
77793;BME280;66983;51.438;5.438;2023-03-14T08:53:03;99218.66;;;8.29;82.81
77793;BME280;66983;51.438;5.438;2023-03-14T08:55:29;99223.00;;;8.30;83.28
77793;BME280;66983;51.438;5.438;2023-03-14T08:57:55;99235.59;;;8.27;83.98
77793;BME280;66983;51.438;5.438;2023-03-14T09:00:20;99252.88;;;8.18;83.91
77793;BME280;66983;51.438;5.438;2023-03-14T09:02:46;99252.88;;;8.18;85.38
77793;BME280;66983;51.438;5.438;2023-03-14T09:05:12;99247.81;;;8.13;84.54
77793;BME280;66983;51.438;5.438;2023-03-14T09:07:39;99246.34;;;8.08;85.88
77793;BME280;66983;51.438;5.438;2023-03-14T09:10:07;99265.78;;;8.08;85.48
77793;BME280;66983;51.438;5.438;2023-03-14T09:12:33;99271.34;;;8.04;85.82
77793;BME280;66983;51.438;5.438;2023-03-14T09:14:58;99292.03;;;7.97;85.85
77793;BME280;66983;51.438;5.438;2023-03-14T09:17:24;99294.63;;;7.99;86.08
77793;BME280;66983;51.438;5.438;2023-03-14T09:19:49;99302.56;;;7.99;86.41
77793;BME280;66983;51.438;5.438;2023-03-14T09:22:15;99309.34;;;8.04;86.32
77793;BME280;66983;51.438;5.438;2023-03-14T09:24:41;99314.38;;;8.09;84.64
77793;BME280;66983;51.438;5.438;2023-03-14T09:27:07;99310.72;;;8.11;86.11
77793;BME280;66983;51.438;5.438;2023-03-14T09:29:33;99325.84;;;8.27;85.65
77793;BME280;66983;51.438;5.438;2023-03-14T09:31:59;99317.53;;;8.33;84.05
77793;BME280;66983;51.438;5.438;2023-03-14T09:34:25;99330.41;;;8.40;84.12
77793;BME280;66983;51.438;5.438;2023-03-14T09:36:50;99335.56;;;8.43;84.95
77793;BME280;66983;51.438;5.438;2023-03-14T09:39:16;99346.41;;;8.39;83.68
77793;BME280;66983;51.438;5.438;2023-03-14T09:41:51;99377.59;;;8.35;84.51
77793;BME280;66983;51.438;5.438;2023-03-14T09:44:30;99381.50;;;8.28;84.42
77793;BME280;66983;51.438;5.438;2023-03-14T09:47:01;99389.84;;;8.21;83.48
77793;BME280;66983;51.438;5.438;2023-03-14T09:49:32;99407.09;;;8.12;84.33
77793;BME280;66983;51.438;5.438;2023-03-14T09:52:02;99426.09;;;8.04;83.88
77793;BME280;66983;51.438;5.438;2023-03-14T09:54:37;99445.84;;;7.99;82.99
77793;BME280;66983;51.438;5.438;2023-03-14T09:57:06;99456.66;;;7.94;82.12
77793;BME280;66983;51.438;5.438;2023-03-14T09:59:35;99467.88;;;7.82;81.97
77793;BME280;66983;51.438;5.438;2023-03-14T10:02:17;99499.91;;;7.60;81.31
77793;BME280;66983;51.438;5.438;2023-03-14T10:04:45;99502.31;;;7.47;81.41
77793;BME280;66983;51.438;5.438;2023-03-14T10:07:16;99523.22;;;7.35;79.58
77793;BME280;66983;51.438;5.438;2023-03-14T10:09:49;99547.06;;;7.35;79.77
77793;BME280;66983;51.438;5.438;2023-03-14T10:12:16;99550.22;;;7.24;77.85
77793;BME280;66983;51.438;5.438;2023-03-14T10:14:52;99557.09;;;7.28;80.19
77793;BME280;66983;51.438;5.438;2023-03-14T10:17:19;99570.34;;;7.28;79.02
77793;BME280;66983;51.438;5.438;2023-03-14T10:19:59;99590.78;;;7.26;77.94
77793;BME280;66983;51.438;5.438;2023-03-14T10:22:34;99589.47;;;7.35;79.19
77793;BME280;66983;51.438;5.438;2023-03-14T10:25:03;99596.88;;;7.47;78.70
77793;BME280;66983;51.438;5.438;2023-03-14T10:27:32;99608.63;;;7.60;80.78
77793;BME280;66983;51.438;5.438;2023-03-14T10:30:00;99626.34;;;7.78;79.58
77793;BME280;66983;51.438;5.438;2023-03-14T10:32:38;99635.22;;;7.77;77.33
77793;BME280;66983;51.438;5.438;2023-03-14T10:37:59;99656.44;;;7.77;78.29
77793;BME280;66983;51.438;5.438;2023-03-14T10:40:37;99663.59;;;7.75;76.89
77793;BME280;66983;51.438;5.438;2023-03-14T10:43:06;99667.53;;;7.67;76.48
77793;BME280;66983;51.438;5.438;2023-03-14T10:45:39;99679.47;;;7.57;74.97
77793;BME280;66983;51.438;5.438;2023-03-14T10:50:57;99707.97;;;7.72;74.77
77793;BME280;66983;51.438;5.438;2023-03-14T10:53:24;99722.69;;;7.79;73.01
77793;BME280;66983;51.438;5.438;2023-03-14T10:55:49;99727.41;;;7.72;72.03
77793;BME280;66983;51.438;5.438;2023-03-14T10:58:20;99737.22;;;7.70;71.32
77793;BME280;66983;51.438;5.438;2023-03-14T11:00:52;99748.88;;;7.66;71.72
77793;BME280;66983;51.438;5.438;2023-03-14T11:03:23;99758.94;;;7.58;70.72
77793;BME280;66983;51.438;5.438;2023-03-14T11:05:57;99773.56;;;7.48;74.54
77793;BME280;66983;51.438;5.438;2023-03-14T11:11:26;99795.75;;;7.25;78.15
77793;BME280;66983;51.438;5.438;2023-03-14T11:14:12;99803.16;;;7.17;79.98
77793;BME280;66983;51.438;5.438;2023-03-14T11:17:18;99796.25;;;7.13;79.06
77793;BME280;66983;51.438;5.438;2023-03-14T11:20:29;99820.03;;;7.14;79.55
77793;BME280;66983;51.438;5.438;2023-03-14T11:23:14;99831.50;;;7.15;78.30
77793;BME280;66983;51.438;5.438;2023-03-14T11:28:49;99842.25;;;7.32;79.63
77793;BME280;66983;51.438;5.438;2023-03-14T11:31:35;99850.44;;;7.48;80.53
77793;BME280;66983;51.438;5.438;2023-03-14T11:37:06;99856.47;;;7.52;77.61
77793;BME280;66983;51.438;5.438;2023-03-14T11:39:39;99872.16;;;7.56;77.64
77793;BME280;66983;51.438;5.438;2023-03-14T11:42:12;99873.38;;;7.49;75.95
77793;BME280;66983;51.438;5.438;2023-03-14T11:44:44;99891.06;;;7.48;76.70
77793;BME280;66983;51.438;5.438;2023-03-14T11:47:13;99903.66;;;7.43;77.23
77793;BME280;66983;51.438;5.438;2023-03-14T11:49:51;99931.25;;;7.38;77.96
77793;BME280;66983;51.438;5.438;2023-03-14T11:52:32;99951.53;;;6.95;76.33
77793;BME280;66983;51.438;5.438;2023-03-14T11:57:50;99951.88;;;6.15;77.33
77793;BME280;66983;51.438;5.438;2023-03-14T12:00:19;99956.59;;;6.05;78.97
77793;BME280;66983;51.438;5.438;2023-03-14T12:03:17;99956.13;;;6.19;80.82
77793;BME280;66983;51.438;5.438;2023-03-14T12:08:53;99964.16;;;6.40;77.68
77793;BME280;66983;51.438;5.438;2023-03-14T12:11:48;99976.03;;;6.54;78.84
77793;BME280;66983;51.438;5.438;2023-03-14T12:14:28;99981.84;;;6.63;79.29
77793;BME280;66983;51.438;5.438;2023-03-14T12:16:58;99993.47;;;6.82;79.92
77793;BME280;66983;51.438;5.438;2023-03-14T12:19:31;99998.34;;;6.95;80.58
77793;BME280;66983;51.438;5.438;2023-03-14T12:24:36;100002.81;;;7.16;81.65
77793;BME280;66983;51.438;5.438;2023-03-14T12:27:05;100013.28;;;7.19;79.47
77793;BME280;66983;51.438;5.438;2023-03-14T12:29:31;100017.63;;;7.22;77.86
77793;BME280;66983;51.438;5.438;2023-03-14T12:32:23;100024.88;;;7.17;76.53
77793;BME280;66983;51.438;5.438;2023-03-14T12:34:49;100025.78;;;7.15;75.09
77793;BME280;66983;51.438;5.438;2023-03-14T12:37:44;100018.16;;;7.30;76.17
77793;BME280;66983;51.438;5.438;2023-03-14T12:40:30;100036.59;;;7.33;73.92
77793;BME280;66983;51.438;5.438;2023-03-14T12:43:00;100029.22;;;7.41;73.48
77793;BME280;66983;51.438;5.438;2023-03-14T12:45:34;100030.72;;;7.48;69.48
77793;BME280;66983;51.438;5.438;2023-03-14T12:48:11;100029.84;;;7.47;71.20
77793;BME280;66983;51.438;5.438;2023-03-14T12:50:46;100034.78;;;7.57;73.81
77793;BME280;66983;51.438;5.438;2023-03-14T12:56:21;100047.75;;;7.64;70.86
77793;BME280;66983;51.438;5.438;2023-03-14T12:59:05;100047.50;;;7.70;71.41
77793;BME280;66983;51.438;5.438;2023-03-14T13:01:33;100054.28;;;7.77;69.75
77793;BME280;66983;51.438;5.438;2023-03-14T13:04:09;100060.94;;;7.88;69.09
77793;BME280;66983;51.438;5.438;2023-03-14T13:06:58;100058.84;;;7.74;66.06
77793;BME280;66983;51.438;5.438;2023-03-14T13:12:14;100073.91;;;7.95;69.62
77793;BME280;66983;51.438;5.438;2023-03-14T13:14:49;100074.13;;;8.11;69.47
77793;BME280;66983;51.438;5.438;2023-03-14T13:17:27;100073.38;;;8.29;70.32
77793;BME280;66983;51.438;5.438;2023-03-14T13:20:00;100083.63;;;8.38;64.47
77793;BME280;66983;51.438;5.438;2023-03-14T13:22:33;100086.41;;;8.35;61.03
77793;BME280;66983;51.438;5.438;2023-03-14T13:25:07;100081.53;;;8.25;55.95
77793;BME280;66983;51.438;5.438;2023-03-14T13:27:35;100093.03;;;8.25;57.15
77793;BME280;66983;51.438;5.438;2023-03-14T13:30:19;100106.16;;;8.28;55.00
77793;BME280;66983;51.438;5.438;2023-03-14T13:32:47;100099.00;;;8.30;54.77
77793;BME280;66983;51.438;5.438;2023-03-14T13:35:18;100110.25;;;8.37;56.93
77793;BME280;66983;51.438;5.438;2023-03-14T13:37:44;100112.03;;;8.36;53.77
77793;BME280;66983;51.438;5.438;2023-03-14T13:40:39;100127.84;;;8.39;55.01
77793;BME280;66983;51.438;5.438;2023-03-14T13:43:21;100128.81;;;8.37;51.55
77793;BME280;66983;51.438;5.438;2023-03-14T13:45:51;100163.41;;;8.35;49.98
77793;BME280;66983;51.438;5.438;2023-03-14T13:48:19;100149.31;;;8.33;52.85
77793;BME280;66983;51.438;5.438;2023-03-14T13:50:49;100156.13;;;8.40;50.03
77793;BME280;66983;51.438;5.438;2023-03-14T13:53:15;100164.91;;;8.42;49.79
77793;BME280;66983;51.438;5.438;2023-03-14T13:55:41;100166.63;;;8.43;49.68
77793;BME280;66983;51.438;5.438;2023-03-14T13:58:13;100175.56;;;8.41;52.05
77793;BME280;66983;51.438;5.438;2023-03-14T14:00:54;100180.59;;;8.48;48.70
77793;BME280;66983;51.438;5.438;2023-03-14T14:03:22;100190.03;;;8.56;48.13
77793;BME280;66983;51.438;5.438;2023-03-14T14:05:48;100206.97;;;8.53;47.60